sensor_id;sensor_type;location;lat;lon;timestamp;temperature;humidity
18126;DHT22;53956;52.442;13.284;2023-04-25T00:00:31;14.60;83.80
18126;DHT22;53956;52.442;13.284;2023-04-25T00:02:58;14.60;83.60
18126;DHT22;53956;52.442;13.284;2023-04-25T00:05:25;14.60;83.10
18126;DHT22;53956;52.442;13.284;2023-04-25T00:07:52;14.40;83.50
18126;DHT22;53956;52.442;13.284;2023-04-25T00:10:20;14.40;83.40
18126;DHT22;53956;52.442;13.284;2023-04-25T00:12:47;14.50;83.40
18126;DHT22;53956;52.442;13.284;2023-04-25T00:15:15;14.50;83.60
18126;DHT22;53956;52.442;13.284;2023-04-25T00:17:43;14.50;83.40
18126;DHT22;53956;52.442;13.284;2023-04-25T00:20:11;14.50;83.30
18126;DHT22;53956;52.442;13.284;2023-04-25T00:22:38;14.50;82.90
18126;DHT22;53956;52.442;13.284;2023-04-25T00:25:05;14.50;83.30
18126;DHT22;53956;52.442;13.284;2023-04-25T00:27:32;14.50;82.60
18126;DHT22;53956;52.442;13.284;2023-04-25T00:29:59;14.50;83.40
18126;DHT22;53956;52.442;13.284;2023-04-25T00:32:27;14.30;82.90
18126;DHT22;53956;52.442;13.284;2023-04-25T00:34:54;14.30;83.70
18126;DHT22;53956;52.442;13.284;2023-04-25T00:37:23;14.40;83.80
18126;DHT22;53956;52.442;13.284;2023-04-25T00:39:50;14.50;83.40
18126;DHT22;53956;52.442;13.284;2023-04-25T00:42:19;14.40;83.70
18126;DHT22;53956;52.442;13.284;2023-04-25T00:44:46;14.30;84.00
18126;DHT22;53956;52.442;13.284;2023-04-25T00:47:13;14.20;84.50
18126;DHT22;53956;52.442;13.284;2023-04-25T00:49:42;14.30;84.40
18126;DHT22;53956;52.442;13.284;2023-04-25T00:52:11;14.40;84.40
18126;DHT22;53956;52.442;13.284;2023-04-25T00:54:37;14.30;84.30
18126;DHT22;53956;52.442;13.284;2023-04-25T00:57:04;14.20;84.10
18126;DHT22;53956;52.442;13.284;2023-04-25T00:59:31;14.20;84.50
18126;DHT22;53956;52.442;13.284;2023-04-25T01:01:58;14.30;84.30
18126;DHT22;53956;52.442;13.284;2023-04-25T01:04:26;14.30;84.30
18126;DHT22;53956;52.442;13.284;2023-04-25T01:06:54;14.40;84.30
18126;DHT22;53956;52.442;13.284;2023-04-25T01:09:22;14.20;84.40
18126;DHT22;53956;52.442;13.284;2023-04-25T01:11:49;14.00;84.70
18126;DHT22;53956;52.442;13.284;2023-04-25T01:14:16;14.10;84.80
18126;DHT22;53956;52.442;13.284;2023-04-25T01:16:42;14.30;84.10
18126;DHT22;53956;52.442;13.284;2023-04-25T01:19:10;14.30;84.80
18126;DHT22;53956;52.442;13.284;2023-04-25T01:21:39;14.10;84.70
18126;DHT22;53956;52.442;13.284;2023-04-25T01:24:06;14.20;84.70
18126;DHT22;53956;52.442;13.284;2023-04-25T01:26:35;14.20;85.00
18126;DHT22;53956;52.442;13.284;2023-04-25T01:29:03;14.10;84.80
18126;DHT22;53956;52.442;13.284;2023-04-25T01:31:31;14.10;85.10
18126;DHT22;53956;52.442;13.284;2023-04-25T01:33:58;14.00;85.80
18126;DHT22;53956;52.442;13.284;2023-04-25T01:36:28;14.00;85.30
18126;DHT22;53956;52.442;13.284;2023-04-25T01:38:57;14.30;84.80
18126;DHT22;53956;52.442;13.284;2023-04-25T01:41:24;14.30;84.50
18126;DHT22;53956;52.442;13.284;2023-04-25T01:43:51;14.30;84.50
18126;DHT22;53956;52.442;13.284;2023-04-25T01:46:18;14.30;84.10
18126;DHT22;53956;52.442;13.284;2023-04-25T01:48:44;14.40;84.50
18126;DHT22;53956;52.442;13.284;2023-04-25T01:51:11;14.30;84.80
18126;DHT22;53956;52.442;13.284;2023-04-25T01:53:39;14.30;84.40
18126;DHT22;53956;52.442;13.284;2023-04-25T01:56:07;14.30;84.10
18126;DHT22;53956;52.442;13.284;2023-04-25T01:58:35;14.20;85.00
18126;DHT22;53956;52.442;13.284;2023-04-25T02:01:31;14.30;84.10
18126;DHT22;53956;52.442;13.284;2023-04-25T02:04:12;14.20;84.70
18126;DHT22;53956;52.442;13.284;2023-04-25T02:06:41;14.20;84.40
18126;DHT22;53956;52.442;13.284;2023-04-25T02:09:08;14.20;84.50
18126;DHT22;53956;52.442;13.284;2023-04-25T02:11:40;14.10;83.90
18126;DHT22;53956;52.442;13.284;2023-04-25T02:14:45;14.00;85.10
18126;DHT22;53956;52.442;13.284;2023-04-25T02:17:16;14.00;84.70
18126;DHT22;53956;52.442;13.284;2023-04-25T02:19:44;13.90;84.90
18126;DHT22;53956;52.442;13.284;2023-04-25T02:22:12;13.90;85.60
18126;DHT22;53956;52.442;13.284;2023-04-25T02:24:39;13.80;85.10
18126;DHT22;53956;52.442;13.284;2023-04-25T02:27:07;13.80;85.40
18126;DHT22;53956;52.442;13.284;2023-04-25T02:29:34;14.00;84.90
18126;DHT22;53956;52.442;13.284;2023-04-25T02:32:01;13.70;85.60
18126;DHT22;53956;52.442;13.284;2023-04-25T02:34:28;13.90;85.30
18126;DHT22;53956;52.442;13.284;2023-04-25T02:36:55;14.00;85.60
18126;DHT22;53956;52.442;13.284;2023-04-25T02:39:21;13.90;85.00
18126;DHT22;53956;52.442;13.284;2023-04-25T02:41:50;14.10;85.60
18126;DHT22;53956;52.442;13.284;2023-04-25T02:44:18;14.00;85.10
18126;DHT22;53956;52.442;13.284;2023-04-25T02:46:45;13.90;84.70
18126;DHT22;53956;52.442;13.284;2023-04-25T02:49:12;13.90;85.30
18126;DHT22;53956;52.442;13.284;2023-04-25T02:51:38;14.00;85.30
18126;DHT22;53956;52.442;13.284;2023-04-25T02:54:05;14.10;85.60
18126;DHT22;53956;52.442;13.284;2023-04-25T02:56:36;14.00;85.10
18126;DHT22;53956;52.442;13.284;2023-04-25T02:59:05;14.00;85.30
18126;DHT22;53956;52.442;13.284;2023-04-25T03:01:33;14.10;84.70
18126;DHT22;53956;52.442;13.284;2023-04-25T03:04:00;14.00;85.10
18126;DHT22;53956;52.442;13.284;2023-04-25T03:06:26;14.00;85.10
18126;DHT22;53956;52.442;13.284;2023-04-25T03:08:53;14.10;84.60
18126;DHT22;53956;52.442;13.284;2023-04-25T03:11:20;14.10;85.10
18126;DHT22;53956;52.442;13.284;2023-04-25T03:13:46;13.90;84.90
18126;DHT22;53956;52.442;13.284;2023-04-25T03:16:13;13.90;85.50
18126;DHT22;53956;52.442;13.284;2023-04-25T03:18:41;13.70;85.70
18126;DHT22;53956;52.442;13.284;2023-04-25T03:21:08;13.70;86.20
18126;DHT22;53956;52.442;13.284;2023-04-25T03:23:35;13.70;86.40
18126;DHT22;53956;52.442;13.284;2023-04-25T03:26:01;13.80;85.80
18126;DHT22;53956;52.442;13.284;2023-04-25T03:28:28;13.80;85.70
18126;DHT22;53956;52.442;13.284;2023-04-25T03:30:56;13.80;85.80
18126;DHT22;53956;52.442;13.284;2023-04-25T03:33:23;13.70;86.20
18126;DHT22;53956;52.442;13.284;2023-04-25T03:35:51;13.90;87.50
18126;DHT22;53956;52.442;13.284;2023-04-25T03:38:18;13.80;85.50
18126;DHT22;53956;52.442;13.284;2023-04-25T03:40:45;13.60;86.00
18126;DHT22;53956;52.442;13.284;2023-04-25T03:43:38;13.70;86.50
18126;DHT22;53956;52.442;13.284;2023-04-25T03:46:09;13.70;85.80
18126;DHT22;53956;52.442;13.284;2023-04-25T03:48:37;13.60;86.60
18126;DHT22;53956;52.442;13.284;2023-04-25T03:51:05;13.80;86.60
18126;DHT22;53956;52.442;13.284;2023-04-25T03:53:34;13.90;86.30
18126;DHT22;53956;52.442;13.284;2023-04-25T03:56:20;13.80;85.90
18126;DHT22;53956;52.442;13.284;2023-04-25T03:58:53;13.70;86.20
18126;DHT22;53956;52.442;13.284;2023-04-25T04:01:22;13.60;87.10
18126;DHT22;53956;52.442;13.284;2023-04-25T04:03:49;13.80;86.80
18126;DHT22;53956;52.442;13.284;2023-04-25T04:06:17;13.70;86.70
18126;DHT22;53956;52.442;13.284;2023-04-25T04:08:49;13.70;87.10
18126;DHT22;53956;52.442;13.284;2023-04-25T04:11:16;13.70;86.40
18126;DHT22;53956;52.442;13.284;2023-04-25T04:13:42;13.80;86.30
18126;DHT22;53956;52.442;13.284;2023-04-25T04:16:09;13.80;86.50
18126;DHT22;53956;52.442;13.284;2023-04-25T04:18:36;13.70;86.50
18126;DHT22;53956;52.442;13.284;2023-04-25T04:21:03;13.80;86.50
18126;DHT22;53956;52.442;13.284;2023-04-25T04:23:35;13.80;87.30
18126;DHT22;53956;52.442;13.284;2023-04-25T04:26:01;13.80;86.80
18126;DHT22;53956;52.442;13.284;2023-04-25T04:28:41;13.60;87.30
18126;DHT22;53956;52.442;13.284;2023-04-25T04:31:24;13.80;87.20
18126;DHT22;53956;52.442;13.284;2023-04-25T04:33:50;13.80;87.10
18126;DHT22;53956;52.442;13.284;2023-04-25T04:36:18;14.00;87.50
18126;DHT22;53956;52.442;13.284;2023-04-25T04:38:49;13.80;86.80
18126;DHT22;53956;52.442;13.284;2023-04-25T04:41:31;13.80;87.30
18126;DHT22;53956;52.442;13.284;2023-04-25T04:44:10;13.90;86.90
18126;DHT22;53956;52.442;13.284;2023-04-25T04:46:44;13.90;86.90
18126;DHT22;53956;52.442;13.284;2023-04-25T04:49:29;13.90;87.60
18126;DHT22;53956;52.442;13.284;2023-04-25T04:52:19;14.00;86.80
18126;DHT22;53956;52.442;13.284;2023-04-25T04:55:00;13.80;87.30
18126;DHT22;53956;52.442;13.284;2023-04-25T04:57:43;13.60;87.50
18126;DHT22;53956;52.442;13.284;2023-04-25T05:00:11;13.70;87.40
18126;DHT22;53956;52.442;13.284;2023-04-25T05:02:56;13.80;87.70
18126;DHT22;53956;52.442;13.284;2023-04-25T05:05:39;13.90;87.30
18126;DHT22;53956;52.442;13.284;2023-04-25T05:08:31;13.90;87.70
18126;DHT22;53956;52.442;13.284;2023-04-25T05:11:11;13.80;87.80
18126;DHT22;53956;52.442;13.284;2023-04-25T05:13:51;13.60;87.80
18126;DHT22;53956;52.442;13.284;2023-04-25T05:16:38;13.50;88.00
18126;DHT22;53956;52.442;13.284;2023-04-25T05:19:33;13.50;88.10
18126;DHT22;53956;52.442;13.284;2023-04-25T05:22:13;13.60;87.80
18126;DHT22;53956;52.442;13.284;2023-04-25T05:25:09;13.50;88.60
18126;DHT22;53956;52.442;13.284;2023-04-25T05:27:56;13.50;88.40
18126;DHT22;53956;52.442;13.284;2023-04-25T05:30:42;13.60;88.70
18126;DHT22;53956;52.442;13.284;2023-04-25T05:33:28;13.70;88.50
18126;DHT22;53956;52.442;13.284;2023-04-25T05:35:55;13.60;89.20
18126;DHT22;53956;52.442;13.284;2023-04-25T05:38:23;13.60;89.20
18126;DHT22;53956;52.442;13.284;2023-04-25T05:41:15;13.70;89.10
18126;DHT22;53956;52.442;13.284;2023-04-25T05:43:48;13.60;89.50
18126;DHT22;53956;52.442;13.284;2023-04-25T05:46:25;13.70;89.40
18126;DHT22;53956;52.442;13.284;2023-04-25T05:49:12;13.60;89.10
18126;DHT22;53956;52.442;13.284;2023-04-25T05:52:02;13.60;89.80
18126;DHT22;53956;52.442;13.284;2023-04-25T05:54:53;13.50;89.90
18126;DHT22;53956;52.442;13.284;2023-04-25T05:57:22;13.50;90.00
18126;DHT22;53956;52.442;13.284;2023-04-25T05:59:50;13.50;90.00
18126;DHT22;53956;52.442;13.284;2023-04-25T06:02:17;13.60;89.30
18126;DHT22;53956;52.442;13.284;2023-04-25T06:04:44;13.80;89.80
18126;DHT22;53956;52.442;13.284;2023-04-25T06:07:10;13.70;89.60
18126;DHT22;53956;52.442;13.284;2023-04-25T06:09:37;13.60;90.30
18126;DHT22;53956;52.442;13.284;2023-04-25T06:12:05;13.70;89.80
18126;DHT22;53956;52.442;13.284;2023-04-25T06:14:32;13.80;89.60
18126;DHT22;53956;52.442;13.284;2023-04-25T06:17:00;13.60;89.50
18126;DHT22;53956;52.442;13.284;2023-04-25T06:19:32;13.50;89.70
18126;DHT22;53956;52.442;13.284;2023-04-25T06:21:58;13.40;90.40
18126;DHT22;53956;52.442;13.284;2023-04-25T06:24:25;13.40;90.40
18126;DHT22;53956;52.442;13.284;2023-04-25T06:26:52;13.80;90.60
18126;DHT22;53956;52.442;13.284;2023-04-25T06:29:19;13.70;89.70
18126;DHT22;53956;52.442;13.284;2023-04-25T06:31:46;13.50;91.20
18126;DHT22;53956;52.442;13.284;2023-04-25T06:34:14;13.50;90.30
18126;DHT22;53956;52.442;13.284;2023-04-25T06:36:41;13.50;91.30
18126;DHT22;53956;52.442;13.284;2023-04-25T06:39:12;13.30;91.20
18126;DHT22;53956;52.442;13.284;2023-04-25T06:41:39;13.40;91.20
18126;DHT22;53956;52.442;13.284;2023-04-25T06:44:13;13.50;91.20
18126;DHT22;53956;52.442;13.284;2023-04-25T06:46:50;13.50;91.20
18126;DHT22;53956;52.442;13.284;2023-04-25T06:49:18;13.50;91.50
18126;DHT22;53956;52.442;13.284;2023-04-25T06:51:45;13.70;91.10
18126;DHT22;53956;52.442;13.284;2023-04-25T06:54:11;13.80;90.80
18126;DHT22;53956;52.442;13.284;2023-04-25T06:56:45;13.50;91.40
18126;DHT22;53956;52.442;13.284;2023-04-25T06:59:14;13.50;91.40
18126;DHT22;53956;52.442;13.284;2023-04-25T07:01:42;13.40;91.40
18126;DHT22;53956;52.442;13.284;2023-04-25T07:04:20;13.40;92.20
18126;DHT22;53956;52.442;13.284;2023-04-25T07:06:54;13.50;92.50
18126;DHT22;53956;52.442;13.284;2023-04-25T07:09:27;13.50;92.30
18126;DHT22;53956;52.442;13.284;2023-04-25T07:11:55;13.20;93.30
18126;DHT22;53956;52.442;13.284;2023-04-25T07:14:21;13.10;94.70
18126;DHT22;53956;52.442;13.284;2023-04-25T07:16:48;13.30;95.20
18126;DHT22;53956;52.442;13.284;2023-04-25T07:19:15;13.30;94.60
18126;DHT22;53956;52.442;13.284;2023-04-25T07:21:43;13.30;95.10
18126;DHT22;53956;52.442;13.284;2023-04-25T07:24:11;13.20;94.80
18126;DHT22;53956;52.442;13.284;2023-04-25T07:26:43;13.30;95.00
18126;DHT22;53956;52.442;13.284;2023-04-25T07:29:22;13.20;95.10
18126;DHT22;53956;52.442;13.284;2023-04-25T07:31:49;13.30;94.30
18126;DHT22;53956;52.442;13.284;2023-04-25T07:34:16;13.20;94.70
18126;DHT22;53956;52.442;13.284;2023-04-25T07:36:45;13.20;93.10
18126;DHT22;53956;52.442;13.284;2023-04-25T07:39:12;13.30;92.70
18126;DHT22;53956;52.442;13.284;2023-04-25T07:41:38;13.30;92.60
18126;DHT22;53956;52.442;13.284;2023-04-25T07:44:07;13.30;92.40
18126;DHT22;53956;52.442;13.284;2023-04-25T07:46:34;13.40;91.60
18126;DHT22;53956;52.442;13.284;2023-04-25T07:49:02;13.40;91.70
18126;DHT22;53956;52.442;13.284;2023-04-25T07:51:29;13.30;91.30
18126;DHT22;53956;52.442;13.284;2023-04-25T07:54:02;13.30;91.50
18126;DHT22;53956;52.442;13.284;2023-04-25T07:56:32;13.30;91.20
18126;DHT22;53956;52.442;13.284;2023-04-25T07:58:59;13.30;91.50
18126;DHT22;53956;52.442;13.284;2023-04-25T08:01:26;13.20;90.50
18126;DHT22;53956;52.442;13.284;2023-04-25T08:03:57;13.40;91.20
18126;DHT22;53956;52.442;13.284;2023-04-25T08:06:34;13.40;90.60
18126;DHT22;53956;52.442;13.284;2023-04-25T08:09:10;13.30;91.00
18126;DHT22;53956;52.442;13.284;2023-04-25T08:11:39;13.40;90.90
18126;DHT22;53956;52.442;13.284;2023-04-25T08:14:08;13.40;91.00
18126;DHT22;53956;52.442;13.284;2023-04-25T08:16:36;13.40;90.20
18126;DHT22;53956;52.442;13.284;2023-04-25T08:19:03;13.40;90.00
18126;DHT22;53956;52.442;13.284;2023-04-25T08:21:30;13.70;88.50
18126;DHT22;53956;52.442;13.284;2023-04-25T08:24:00;14.00;86.10
18126;DHT22;53956;52.442;13.284;2023-04-25T08:26:32;14.10;83.10
18126;DHT22;53956;52.442;13.284;2023-04-25T08:29:00;14.10;83.00
18126;DHT22;53956;52.442;13.284;2023-04-25T08:31:27;14.10;82.70
18126;DHT22;53956;52.442;13.284;2023-04-25T08:33:57;14.10;81.30
18126;DHT22;53956;52.442;13.284;2023-04-25T08:36:34;14.10;80.80
18126;DHT22;53956;52.442;13.284;2023-04-25T08:39:01;14.30;80.80
18126;DHT22;53956;52.442;13.284;2023-04-25T08:41:36;14.20;80.10
18126;DHT22;53956;52.442;13.284;2023-04-25T08:44:06;14.30;79.40
18126;DHT22;53956;52.442;13.284;2023-04-25T08:46:37;14.30;78.10
18126;DHT22;53956;52.442;13.284;2023-04-25T08:49:12;14.40;77.20
18126;DHT22;53956;52.442;13.284;2023-04-25T08:51:44;14.20;74.70
18126;DHT22;53956;52.442;13.284;2023-04-25T08:54:13;14.30;76.20
18126;DHT22;53956;52.442;13.284;2023-04-25T08:56:44;14.20;72.70
18126;DHT22;53956;52.442;13.284;2023-04-25T08:59:12;14.70;74.00
18126;DHT22;53956;52.442;13.284;2023-04-25T09:01:40;14.80;71.40
18126;DHT22;53956;52.442;13.284;2023-04-25T09:04:07;14.90;71.70
18126;DHT22;53956;52.442;13.284;2023-04-25T09:06:34;15.10;70.50
18126;DHT22;53956;52.442;13.284;2023-04-25T09:09:03;15.00;69.10
18126;DHT22;53956;52.442;13.284;2023-04-25T09:11:31;15.40;69.80
18126;DHT22;53956;52.442;13.284;2023-04-25T09:14:14;15.60;67.30
18126;DHT22;53956;52.442;13.284;2023-04-25T09:16:59;15.60;66.30
18126;DHT22;53956;52.442;13.284;2023-04-25T09:19:36;15.40;67.20
18126;DHT22;53956;52.442;13.284;2023-04-25T09:22:07;15.50;65.80
18126;DHT22;53956;52.442;13.284;2023-04-25T09:24:37;15.20;67.80
18126;DHT22;53956;52.442;13.284;2023-04-25T09:27:04;15.30;67.90
18126;DHT22;53956;52.442;13.284;2023-04-25T09:29:34;15.20;67.80
18126;DHT22;53956;52.442;13.284;2023-04-25T09:32:11;15.30;68.00
18126;DHT22;53956;52.442;13.284;2023-04-25T09:34:40;15.30;68.40
18126;DHT22;53956;52.442;13.284;2023-04-25T09:37:08;15.30;67.50
18126;DHT22;53956;52.442;13.284;2023-04-25T09:39:57;15.40;68.20
18126;DHT22;53956;52.442;13.284;2023-04-25T09:42:26;15.00;68.60
18126;DHT22;53956;52.442;13.284;2023-04-25T09:44:56;14.90;68.20
18126;DHT22;53956;52.442;13.284;2023-04-25T09:47:24;14.80;68.90
18126;DHT22;53956;52.442;13.284;2023-04-25T09:49:54;15.00;68.80
18126;DHT22;53956;52.442;13.284;2023-04-25T09:52:22;15.10;69.10
18126;DHT22;53956;52.442;13.284;2023-04-25T09:55:15;15.30;69.50
18126;DHT22;53956;52.442;13.284;2023-04-25T09:57:46;15.00;68.40
18126;DHT22;53956;52.442;13.284;2023-04-25T10:00:17;15.00;68.70
18126;DHT22;53956;52.442;13.284;2023-04-25T10:02:47;14.70;67.60
18126;DHT22;53956;52.442;13.284;2023-04-25T10:05:37;14.70;68.80
18126;DHT22;53956;52.442;13.284;2023-04-25T10:08:04;14.70;66.70
18126;DHT22;53956;52.442;13.284;2023-04-25T10:10:32;14.90;67.70
18126;DHT22;53956;52.442;13.284;2023-04-25T10:13:03;15.00;67.30
18126;DHT22;53956;52.442;13.284;2023-04-25T10:15:32;14.90;66.30
18126;DHT22;53956;52.442;13.284;2023-04-25T10:18:00;15.00;66.60
18126;DHT22;53956;52.442;13.284;2023-04-25T10:20:28;14.80;64.70
18126;DHT22;53956;52.442;13.284;2023-04-25T10:22:58;14.80;64.80
18126;DHT22;53956;52.442;13.284;2023-04-25T10:25:27;14.80;66.50
18126;DHT22;53956;52.442;13.284;2023-04-25T10:27:54;14.60;64.20
18126;DHT22;53956;52.442;13.284;2023-04-25T10:30:21;14.70;65.10
18126;DHT22;53956;52.442;13.284;2023-04-25T10:32:48;14.80;65.60
18126;DHT22;53956;52.442;13.284;2023-04-25T10:35:17;14.90;65.30
18126;DHT22;53956;52.442;13.284;2023-04-25T10:37:57;14.80;65.20
18126;DHT22;53956;52.442;13.284;2023-04-25T10:40:24;14.90;65.50
18126;DHT22;53956;52.442;13.284;2023-04-25T10:42:52;15.00;65.00
18126;DHT22;53956;52.442;13.284;2023-04-25T10:45:20;14.90;66.20
18126;DHT22;53956;52.442;13.284;2023-04-25T10:47:46;14.80;66.60
18126;DHT22;53956;52.442;13.284;2023-04-25T10:50:15;14.70;65.40
18126;DHT22;53956;52.442;13.284;2023-04-25T10:52:42;14.60;65.60
18126;DHT22;53956;52.442;13.284;2023-04-25T10:55:09;14.40;65.00
18126;DHT22;53956;52.442;13.284;2023-04-25T10:57:37;14.30;65.40
18126;DHT22;53956;52.442;13.284;2023-04-25T11:00:07;14.50;66.60
18126;DHT22;53956;52.442;13.284;2023-04-25T11:02:46;14.70;66.40
18126;DHT22;53956;52.442;13.284;2023-04-25T11:05:20;14.80;65.00
18126;DHT22;53956;52.442;13.284;2023-04-25T11:07:50;14.60;63.10
18126;DHT22;53956;52.442;13.284;2023-04-25T11:10:18;14.30;63.10
18126;DHT22;53956;52.442;13.284;2023-04-25T11:12:45;14.20;63.40
18126;DHT22;53956;52.442;13.284;2023-04-25T11:15:13;14.20;64.50
18126;DHT22;53956;52.442;13.284;2023-04-25T11:17:40;14.20;64.90
18126;DHT22;53956;52.442;13.284;2023-04-25T11:20:07;14.30;65.50
18126;DHT22;53956;52.442;13.284;2023-04-25T11:22:39;14.60;64.90
18126;DHT22;53956;52.442;13.284;2023-04-25T11:25:08;14.40;64.70
18126;DHT22;53956;52.442;13.284;2023-04-25T11:27:37;14.30;64.10
18126;DHT22;53956;52.442;13.284;2023-04-25T11:30:11;14.30;63.70
18126;DHT22;53956;52.442;13.284;2023-04-25T11:32:39;14.30;64.20
18126;DHT22;53956;52.442;13.284;2023-04-25T11:35:06;14.20;62.50
18126;DHT22;53956;52.442;13.284;2023-04-25T11:37:33;14.00;62.20
18126;DHT22;53956;52.442;13.284;2023-04-25T11:40:02;13.90;60.70
18126;DHT22;53956;52.442;13.284;2023-04-25T11:42:31;13.90;61.70
18126;DHT22;53956;52.442;13.284;2023-04-25T11:44:58;14.10;61.30
18126;DHT22;53956;52.442;13.284;2023-04-25T11:47:28;14.00;59.90
18126;DHT22;53956;52.442;13.284;2023-04-25T11:49:55;14.00;60.90
18126;DHT22;53956;52.442;13.284;2023-04-25T11:52:22;14.20;61.10
18126;DHT22;53956;52.442;13.284;2023-04-25T11:54:48;14.10;60.40
18126;DHT22;53956;52.442;13.284;2023-04-25T11:57:18;14.10;60.20
18126;DHT22;53956;52.442;13.284;2023-04-25T11:59:45;14.00;61.40
18126;DHT22;53956;52.442;13.284;2023-04-25T12:02:24;14.00;61.60
18126;DHT22;53956;52.442;13.284;2023-04-25T12:04:50;13.90;61.40
18126;DHT22;53956;52.442;13.284;2023-04-25T12:07:17;14.20;62.20
18126;DHT22;53956;52.442;13.284;2023-04-25T12:09:51;14.40;62.10
18126;DHT22;53956;52.442;13.284;2023-04-25T12:12:20;14.30;61.30
18126;DHT22;53956;52.442;13.284;2023-04-25T12:14:48;14.30;62.70
18126;DHT22;53956;52.442;13.284;2023-04-25T12:17:15;14.20;61.70
18126;DHT22;53956;52.442;13.284;2023-04-25T12:19:43;14.30;62.50
18126;DHT22;53956;52.442;13.284;2023-04-25T12:22:21;14.30;61.80
18126;DHT22;53956;52.442;13.284;2023-04-25T12:24:47;14.40;60.80
18126;DHT22;53956;52.442;13.284;2023-04-25T12:27:15;14.40;59.60
18126;DHT22;53956;52.442;13.284;2023-04-25T12:29:52;14.30;59.30
18126;DHT22;53956;52.442;13.284;2023-04-25T12:32:19;14.30;60.30
18126;DHT22;53956;52.442;13.284;2023-04-25T12:34:46;14.30;60.80
18126;DHT22;53956;52.442;13.284;2023-04-25T12:37:13;14.40;61.10
18126;DHT22;53956;52.442;13.284;2023-04-25T12:39:40;14.50;61.00
18126;DHT22;53956;52.442;13.284;2023-04-25T12:42:07;14.60;61.60
18126;DHT22;53956;52.442;13.284;2023-04-25T12:44:37;14.50;61.50
18126;DHT22;53956;52.442;13.284;2023-04-25T12:47:05;14.40;61.10
18126;DHT22;53956;52.442;13.284;2023-04-25T12:49:32;14.30;61.30
18126;DHT22;53956;52.442;13.284;2023-04-25T12:51:58;14.10;61.20
18126;DHT22;53956;52.442;13.284;2023-04-25T12:54:25;14.10;61.40
18126;DHT22;53956;52.442;13.284;2023-04-25T12:56:52;14.20;61.90
18126;DHT22;53956;52.442;13.284;2023-04-25T12:59:19;14.30;62.00
18126;DHT22;53956;52.442;13.284;2023-04-25T13:01:46;14.20;61.30
18126;DHT22;53956;52.442;13.284;2023-04-25T13:04:14;14.20;61.20
18126;DHT22;53956;52.442;13.284;2023-04-25T13:06:41;14.10;61.70
18126;DHT22;53956;52.442;13.284;2023-04-25T13:09:08;14.10;61.60
18126;DHT22;53956;52.442;13.284;2023-04-25T13:11:34;14.20;62.10
18126;DHT22;53956;52.442;13.284;2023-04-25T13:14:01;14.20;62.20
18126;DHT22;53956;52.442;13.284;2023-04-25T13:16:28;14.30;62.10
18126;DHT22;53956;52.442;13.284;2023-04-25T13:18:55;14.40;62.10
18126;DHT22;53956;52.442;13.284;2023-04-25T13:21:23;14.40;61.80
18126;DHT22;53956;52.442;13.284;2023-04-25T13:23:50;14.50;62.40
18126;DHT22;53956;52.442;13.284;2023-04-25T13:26:17;14.60;61.60
18126;DHT22;53956;52.442;13.284;2023-04-25T13:28:44;14.40;60.70
18126;DHT22;53956;52.442;13.284;2023-04-25T13:31:10;14.60;62.60
18126;DHT22;53956;52.442;13.284;2023-04-25T13:33:37;14.60;61.40
18126;DHT22;53956;52.442;13.284;2023-04-25T13:36:04;14.60;61.80
18126;DHT22;53956;52.442;13.284;2023-04-25T13:38:32;14.70;62.60
18126;DHT22;53956;52.442;13.284;2023-04-25T13:40:59;14.60;61.20
18126;DHT22;53956;52.442;13.284;2023-04-25T13:43:26;14.30;60.70
18126;DHT22;53956;52.442;13.284;2023-04-25T13:45:52;14.40;61.50
18126;DHT22;53956;52.442;13.284;2023-04-25T13:48:19;14.50;62.30
18126;DHT22;53956;52.442;13.284;2023-04-25T13:50:46;14.60;62.50
18126;DHT22;53956;52.442;13.284;2023-04-25T13:53:13;14.50;61.80
18126;DHT22;53956;52.442;13.284;2023-04-25T13:55:41;14.60;62.50
18126;DHT22;53956;52.442;13.284;2023-04-25T13:58:08;14.70;62.10
18126;DHT22;53956;52.442;13.284;2023-04-25T14:00:36;14.50;62.30
18126;DHT22;53956;52.442;13.284;2023-04-25T14:03:04;14.30;62.20
18126;DHT22;53956;52.442;13.284;2023-04-25T14:05:33;14.20;62.40
18126;DHT22;53956;52.442;13.284;2023-04-25T14:08:04;14.30;63.40
18126;DHT22;53956;52.442;13.284;2023-04-25T14:10:31;14.30;62.70
18126;DHT22;53956;52.442;13.284;2023-04-25T14:12:58;14.00;62.60
18126;DHT22;53956;52.442;13.284;2023-04-25T14:15:26;14.00;63.50
18126;DHT22;53956;52.442;13.284;2023-04-25T14:17:53;13.90;63.20
18126;DHT22;53956;52.442;13.284;2023-04-25T14:20:19;13.70;62.50
18126;DHT22;53956;52.442;13.284;2023-04-25T14:22:46;13.70;62.40
18126;DHT22;53956;52.442;13.284;2023-04-25T14:25:14;13.80;63.10
18126;DHT22;53956;52.442;13.284;2023-04-25T14:27:41;13.80;63.50
18126;DHT22;53956;52.442;13.284;2023-04-25T14:30:10;13.60;63.90
18126;DHT22;53956;52.442;13.284;2023-04-25T14:32:37;13.60;64.80
18126;DHT22;53956;52.442;13.284;2023-04-25T14:35:05;13.70;64.20
18126;DHT22;53956;52.442;13.284;2023-04-25T14:37:32;13.70;63.50
18126;DHT22;53956;52.442;13.284;2023-04-25T14:39:59;13.60;64.30
18126;DHT22;53956;52.442;13.284;2023-04-25T14:42:26;13.90;64.70
18126;DHT22;53956;52.442;13.284;2023-04-25T14:44:52;14.00;65.90
18126;DHT22;53956;52.442;13.284;2023-04-25T14:47:20;14.10;65.30
18126;DHT22;53956;52.442;13.284;2023-04-25T14:49:47;14.20;65.10
18126;DHT22;53956;52.442;13.284;2023-04-25T14:52:19;14.20;65.30
18126;DHT22;53956;52.442;13.284;2023-04-25T14:54:46;14.10;64.00
18126;DHT22;53956;52.442;13.284;2023-04-25T14:57:13;14.10;64.10
18126;DHT22;53956;52.442;13.284;2023-04-25T14:59:39;14.10;63.90
18126;DHT22;53956;52.442;13.284;2023-04-25T15:02:06;14.10;64.50
18126;DHT22;53956;52.442;13.284;2023-04-25T15:04:34;14.10;64.90
18126;DHT22;53956;52.442;13.284;2023-04-25T15:07:01;14.10;65.60
18126;DHT22;53956;52.442;13.284;2023-04-25T15:09:28;14.00;64.70
18126;DHT22;53956;52.442;13.284;2023-04-25T15:11:55;13.90;65.80
18126;DHT22;53956;52.442;13.284;2023-04-25T15:14:22;13.90;65.60
18126;DHT22;53956;52.442;13.284;2023-04-25T15:16:49;14.00;65.50
18126;DHT22;53956;52.442;13.284;2023-04-25T15:19:15;13.90;65.20
18126;DHT22;53956;52.442;13.284;2023-04-25T15:21:43;14.10;65.90
18126;DHT22;53956;52.442;13.284;2023-04-25T15:24:10;14.10;65.80
18126;DHT22;53956;52.442;13.284;2023-04-25T15:26:37;14.00;66.20
18126;DHT22;53956;52.442;13.284;2023-04-25T15:29:04;14.10;66.40
18126;DHT22;53956;52.442;13.284;2023-04-25T15:31:31;14.10;65.90